Time;durP1;ratioP1;P1;durP2;ratioP2;P2;SDS_P1;SDS_P2;PMS_P1;PMS_P2;Temp;Humidity;BMP_temperature;BMP_pressure;BME280_temperature;BME280_humidity;BME280_pressure;Samples;Min_cycle;Max_cycle;Signal;HPM_P1;HPM_P2
2022/07/16 00:01:23;;;;;;;6.50;3.47;;;;;;;;;;5040400;28;20071;-82
2022/07/16 00:03:52;;;;;;;6.45;2.75;;;20.40;92.40;;;;;;5040546;28;20029;-82
2022/07/16 00:06:21;;;;;;;9.93;3.58;;;20.40;92.80;;;;;;5040459;28;20017;-83
2022/07/16 00:08:47;;;;;;;5.72;2.58;;;20.30;92.70;;;;;;5022676;28;20244;-83
2022/07/16 00:11:12;;;;;;;7.57;3.15;;;20.30;92.80;;;;;;5040604;28;20021;-83
2022/07/16 00:13:39;;;;;;;7.10;2.70;;;20.20;92.80;;;;;;5022525;28;20028;-82
2022/07/16 00:16:06;;;;;;;7.97;2.60;;;20.20;92.70;;;;;;5040378;28;20182;-83
2022/07/16 00:21:16;;;;;;;8.23;3.13;;;20.20;92.90;;;;;;5039565;28;20099;-83
2022/07/16 00:23:42;;;;;;;8.75;3.17;;;20.10;92.80;;;;;;5040079;28;20273;-83
2022/07/16 00:26:08;;;;;;;8.27;2.75;;;20.00;93.30;;;;;;5039694;28;20021;-84
2022/07/16 00:28:33;;;;;;;6.40;2.55;;;20.00;93.30;;;;;;5040000;28;20529;-84
2022/07/16 00:30:59;;;;;;;7.85;2.97;;;20.00;93.30;;;;;;5039801;28;20040;-84
2022/07/16 00:33:25;;;;;;;7.53;3.38;;;19.90;93.30;;;;;;5039687;28;20242;-84
2022/07/16 00:35:51;;;;;;;5.95;2.88;;;19.90;93.30;;;;;;5039933;28;20499;-83
2022/07/16 00:38:17;;;;;;;7.32;2.95;;;19.80;93.50;;;;;;5039663;28;20032;-82
2022/07/16 00:40:42;;;;;;;7.05;3.17;;;19.80;93.70;;;;;;5021319;28;20361;-83
2022/07/16 00:43:12;;;;;;;6.55;3.00;;;19.70;94.00;;;;;;5039447;28;20467;-86
2022/07/16 00:45:38;;;;;;;7.90;3.38;;;19.60;94.20;;;;;;5039520;28;20029;-83
2022/07/16 00:48:05;;;;;;;5.78;2.70;;;19.50;94.50;;;;;;5039401;28;20143;-82
2022/07/16 00:50:31;;;;;;;5.88;3.00;;;19.50;94.50;;;;;;5039371;28;20040;-84
2022/07/16 00:52:59;;;;;;;9.38;3.08;;;19.50;94.50;;;;;;5039610;28;20044;-81
2022/07/16 00:55:25;;;;;;;7.50;3.85;;;19.40;94.70;;;;;;5039235;28;20020;-83
2022/07/16 00:57:51;;;;;;;8.20;3.13;;;19.40;94.80;;;;;;5021035;28;20276;-82
2022/07/16 01:00:17;;;;;;;11.02;5.28;;;19.30;95.20;;;;;;5038866;28;20309;-84
2022/07/16 01:02:43;;;;;;;10.60;3.50;;;19.40;95.20;;;;;;5039137;28;20033;-83
2022/07/16 01:05:10;;;;;;;10.40;3.60;;;19.30;95.10;;;;;;5039053;28;20419;-84
2022/07/16 01:07:36;;;;;;;7.55;3.35;;;19.30;95.10;;;;;;5039161;28;20317;-83
2022/07/16 01:10:04;;;;;;;8.02;3.75;;;19.30;95.20;;;;;;5038708;28;20591;-82
2022/07/16 01:12:30;;;;;;;7.43;3.10;;;19.30;95.40;;;;;;5038689;28;20029;-84
2022/07/16 01:14:57;;;;;;;7.07;3.28;;;19.20;95.40;;;;;;5038631;28;20017;-80
2022/07/16 01:17:24;;;;;;;7.47;3.10;;;19.20;95.70;;;;;;5020481;28;20040;-83
2022/07/16 01:19:50;;;;;;;6.15;3.20;;;19.10;95.70;;;;;;5038644;28;20227;-83
2022/07/16 01:22:21;;;;;;;6.80;3.08;;;19.10;96.00;;;;;;5038555;28;20475;-81
2022/07/16 01:24:48;;;;;;;4.78;2.42;;;19.10;95.80;;;;;;5038863;28;20025;-82
2022/07/16 01:27:15;;;;;;;5.47;2.58;;;19.10;96.00;;;;;;5038603;28;20221;-81
2022/07/16 01:29:41;;;;;;;5.78;2.72;;;19.00;96.20;;;;;;5038660;28;20049;-82
2022/07/16 01:32:07;;;;;;;7.75;3.08;;;18.90;96.30;;;;;;5038810;28;20107;-82
2022/07/16 01:34:33;;;;;;;7.22;3.10;;;18.90;96.30;;;;;;5038733;28;20039;-82
2022/07/16 01:37:05;;;;;;;6.50;2.88;;;18.90;96.50;;;;;;5038602;28;20040;-83
2022/07/16 01:39:33;;;;;;;8.38;3.47;;;18.90;96.40;;;;;;5038729;28;20013;-82
2022/07/16 01:42:02;;;;;;;6.45;3.00;;;18.80;96.70;;;;;;5038545;28;20032;-82
2022/07/16 01:44:29;;;;;;;7.60;2.97;;;18.80;96.70;;;;;;5038633;28;20272;-83
2022/07/16 01:46:57;;;;;;;8.60;3.08;;;18.80;96.70;;;;;;5038922;28;20321;-84
2022/07/16 01:49:23;;;;;;;7.03;3.17;;;18.70;96.90;;;;;;5038365;28;20021;-82
2022/07/16 01:51:49;;;;;;;7.85;3.28;;;18.70;96.90;;;;;;5038442;28;20238;-82
2022/07/16 01:54:16;;;;;;;10.73;3.25;;;18.60;97.10;;;;;;5037916;28;20084;-82
2022/07/16 01:56:42;;;;;;;8.70;3.45;;;18.60;96.90;;;;;;5038237;28;20028;-82
2022/07/16 01:59:08;;;;;;;4.43;2.42;;;18.60;97.00;;;;;;5038379;28;20052;-83
2022/07/16 02:01:34;;;;;;;7.13;3.58;;;18.50;97.20;;;;;;5020198;28;20219;-81
2022/07/16 02:04:00;;;;;;;8.43;3.53;;;18.50;97.20;;;;;;5038222;28;20287;-83
2022/07/16 02:06:26;;;;;;;6.60;2.70;;;18.50;97.30;;;;;;5020022;28;20407;-83
2022/07/16 02:08:51;;;;;;;10.85;3.75;;;18.50;97.30;;;;;;5046196;28;20199;-82
2022/07/16 02:11:17;;;;;;;5.60;2.70;;;18.40;97.50;;;;;;5056563;28;20084;-83
2022/07/16 02:13:43;;;;;;;7.22;3.10;;;18.40;97.60;;;;;;5057093;28;20051;-82
2022/07/16 02:16:11;;;;;;;7.78;3.25;;;18.40;97.60;;;;;;5057310;28;20217;-81
2022/07/16 02:18:37;;;;;;;6.53;3.08;;;18.30;97.80;;;;;;5057148;28;20053;-84
2022/07/16 02:21:03;;;;;;;6.60;3.42;;;18.20;98.20;;;;;;5039546;28;20018;-81
2022/07/16 02:23:29;;;;;;;7.57;3.28;;;18.20;98.00;;;;;;5048821;28;20029;-81
2022/07/16 02:25:55;;;;;;;8.18;3.17;;;18.20;98.00;;;;;;5039606;28;20411;-83
2022/07/16 02:28:21;;;;;;;8.50;3.40;;;18.20;98.00;;;;;;5038452;28;20029;-81
2022/07/16 02:30:48;;;;;;;9.48;3.65;;;18.10;98.30;;;;;;5039703;28;20088;-82
2022/07/16 02:33:16;;;;;;;6.88;3.05;;;18.10;98.30;;;;;;5039766;28;20453;-81
2022/07/16 02:35:42;;;;;;;9.50;3.33;;;18.10;98.40;;;;;;5038989;28;20309;-83
2022/07/16 02:38:09;;;;;;;8.23;3.30;;;18.00;98.60;;;;;;5038981;28;20063;-82
2022/07/16 02:40:38;;;;;;;8.45;3.00;;;18.00;98.70;;;;;;5020427;28;20111;-83
2022/07/16 02:43:06;;;;;;;6.70;3.08;;;18.00;98.60;;;;;;5038241;28;20021;-82
2022/07/16 02:45:33;;;;;;;7.35;2.75;;;17.90;98.50;;;;;;5037954;28;20205;-81
2022/07/16 02:47:59;;;;;;;7.38;3.15;;;17.90;98.70;;;;;;5019919;28;20043;-82
2022/07/16 02:50:26;;;;;;;7.25;3.70;;;17.90;98.90;;;;;;5019725;28;20120;-81
2022/07/16 02:52:52;;;;;;;7.50;3.42;;;17.90;98.90;;;;;;5038083;28;20044;-83
2022/07/16 02:55:17;;;;;;;5.97;2.92;;;17.90;98.90;;;;;;5037476;28;20620;-84
2022/07/16 02:57:44;;;;;;;6.18;2.88;;;;;;;;;;5037273;28;20254;-82
2022/07/16 03:00:12;;;;;;;5.20;2.72;;;17.90;98.80;;;;;;5019532;28;20048;-83
2022/07/16 03:02:38;;;;;;;5.70;2.90;;;17.80;99.00;;;;;;5019089;28;20120;-83
2022/07/16 03:05:07;;;;;;;7.35;3.20;;;17.80;99.10;;;;;;5037594;28;20175;-83
2022/07/16 03:07:32;;;;;;;10.20;3.28;;;17.80;99.40;;;;;;5036938;28;20105;-82
2022/07/16 03:09:58;;;;;;;6.45;2.92;;;17.70;99.20;;;;;;5037061;28;20061;-81
2022/07/16 03:12:24;;;;;;;9.45;4.40;;;17.80;99.20;;;;;;5019227;28;20028;-84
2022/07/16 03:14:50;;;;;;;12.25;3.30;;;17.70;99.30;;;;;;5036989;28;20586;-83
2022/07/16 03:17:16;;;;;;;7.22;3.55;;;17.70;99.40;;;;;;5018701;28;20444;-82
2022/07/16 03:19:42;;;;;;;7.63;3.15;;;17.60;99.60;;;;;;5037059;28;20040;-82
2022/07/16 03:22:08;;;;;;;6.25;3.03;;;19.10;99.90;;;;;;5037060;28;20119;-81
2022/07/16 03:24:34;;;;;;;9.55;3.35;;;17.60;99.70;;;;;;5037252;28;20017;-83
2022/07/16 03:26:59;;;;;;;7.53;4.15;;;17.50;99.60;;;;;;5037009;28;20021;-82
2022/07/16 03:29:27;;;;;;;8.05;3.90;;;17.50;99.70;;;;;;5037115;28;20033;-84
2022/07/16 03:31:53;;;;;;;8.70;3.00;;;17.50;99.90;;;;;;5019131;28;20277;-82
2022/07/16 03:34:18;;;;;;;7.07;3.13;;;17.30;99.90;;;;;;5036862;28;20105;-84
2022/07/16 03:36:44;;;;;;;6.22;3.45;;;17.30;99.90;;;;;;5037042;28;20059;-84
2022/07/16 03:39:10;;;;;;;10.25;3.28;;;17.30;99.90;;;;;;5036930;28;20036;-84
2022/07/16 03:41:37;;;;;;;6.75;3.33;;;17.40;99.90;;;;;;5036728;28;20017;-82
2022/07/16 03:44:06;;;;;;;6.68;3.00;;;17.30;99.90;;;;;;5036861;28;20488;-83
2022/07/16 03:46:32;;;;;;;8.93;3.80;;;17.30;99.90;;;;;;5036641;28;20321;-84
2022/07/16 03:48:59;;;;;;;5.53;2.88;;;17.20;99.90;;;;;;5036652;28;20021;-84
2022/07/16 03:51:25;;;;;;;7.70;3.63;;;17.20;99.90;;;;;;5018599;28;20095;-85
2022/07/16 03:53:51;;;;;;;8.23;4.03;;;17.20;99.90;;;;;;5036628;28;20487;-84
2022/07/16 03:56:17;;;;;;;6.40;3.30;;;17.20;99.90;;;;;;5037914;28;20036;-83
2022/07/16 03:58:43;;;;;;;9.50;3.78;;;17.10;99.90;;;;;;5040504;28;20021;-84
2022/07/16 04:01:09;;;;;;;8.70;3.83;;;17.60;99.90;;;;;;5039995;28;20032;-81
2022/07/16 04:03:36;;;;;;;11.77;4.45;;;17.20;99.90;;;;;;5021998;28;20435;-83
2022/07/16 04:06:03;;;;;;;12.95;4.78;;;17.20;99.90;;;;;;5039852;28;20017;-83
2022/07/16 04:08:29;;;;;;;14.10;5.00;;;17.20;99.90;;;;;;5022128;28;20555;-82
2022/07/16 04:10:55;;;;;;;9.13;4.60;;;17.20;99.90;;;;;;5040014;28;20024;-82
2022/07/16 04:13:21;;;;;;;8.15;3.55;;;17.10;99.90;;;;;;5040560;28;20029;-82
2022/07/16 04:15:47;;;;;;;7.90;3.33;;;17.20;99.90;;;;;;5040097;28;20021;-80
2022/07/16 04:18:13;;;;;;;6.55;3.42;;;17.20;99.90;;;;;;5039707;28;20361;-82
2022/07/16 04:20:39;;;;;;;6.38;3.10;;;17.20;99.90;;;;;;5039807;28;20025;-83
2022/07/16 04:23:05;;;;;;;6.68;3.47;;;17.30;99.90;;;;;;5039868;28;20033;-82
2022/07/16 04:25:31;;;;;;;6.75;3.35;;;17.20;99.90;;;;;;5021436;28;20143;-81
2022/07/16 04:27:57;;;;;;;8.23;3.58;;;17.30;99.90;;;;;;5039698;28;20021;-82
2022/07/16 04:30:23;;;;;;;9.65;3.63;;;17.30;99.90;;;;;;5039690;28;20262;-81
2022/07/16 04:32:49;;;;;;;7.20;3.13;;;17.30;99.90;;;;;;5039275;28;20676;-83
2022/07/16 04:35:16;;;;;;;7.38;3.58;;;17.30;99.90;;;;;;5039784;28;20274;-81
2022/07/16 04:37:43;;;;;;;12.20;5.78;;;17.40;99.90;;;;;;5039664;28;20427;-82
2022/07/16 04:40:10;;;;;;;16.42;7.43;;;17.60;99.90;;;;;;5021423;28;20206;-82
2022/07/16 04:42:40;;;;;;;8.10;4.32;;;17.70;99.80;;;;;;5039588;28;20120;-82
2022/07/16 04:45:07;;;;;;;10.43;3.90;;;17.70;99.70;;;;;;5039264;28;20032;-82
2022/07/16 04:47:33;;;;;;;8.95;4.30;;;17.90;99.50;;;;;;5039312;28;20309;-83
2022/07/16 04:50:00;;;;;;;9.90;4.35;;;18.00;99.50;;;;;;5021360;28;20063;-81
2022/07/16 04:52:27;;;;;;;12.80;4.07;;;18.00;99.60;;;;;;5040074;28;20061;-81
2022/07/16 04:54:53;;;;;;;7.78;3.60;;;18.10;99.30;;;;;;5044977;28;20013;-79
2022/07/16 04:57:18;;;;;;;8.52;3.58;;;18.20;99.20;;;;;;5043252;28;20035;-81
2022/07/16 04:59:44;;;;;;;9.82;4.40;;;18.20;99.10;;;;;;5044240;28;20051;-82
2022/07/16 05:04:54;;;;;;;13.48;5.50;;;18.40;98.80;;;;;;5039050;28;20056;-81
2022/07/16 05:07:20;;;;;;;12.05;6.10;;;18.50;98.70;;;;;;5038915;28;20534;-81
2022/07/16 05:09:46;;;;;;;16.23;5.80;;;18.60;98.70;;;;;;5039016;28;20021;-83
2022/07/16 05:12:11;;;;;;;14.07;7.10;;;18.80;98.60;;;;;;5038884;28;20043;-83
2022/07/16 05:14:37;;;;;;;19.92;9.93;;;18.90;98.40;;;;;;5038919;28;20032;-81
2022/07/16 05:17:03;;;;;;;13.50;6.57;;;18.90;98.20;;;;;;5038241;28;20744;-82
2022/07/16 05:19:29;;;;;;;12.27;4.82;;;19.00;98.10;;;;;;5038547;28;20153;-84
2022/07/16 05:21:55;;;;;;;9.93;5.30;;;19.10;97.90;;;;;;5038518;28;20531;-83
2022/07/16 05:24:20;;;;;;;9.68;4.28;;;19.10;97.80;;;;;;5038373;28;20032;-82
2022/07/16 05:26:46;;;;;;;8.27;4.35;;;19.20;97.60;;;;;;5038433;28;20017;-83
2022/07/16 05:29:12;;;;;;;9.90;4.35;;;19.20;97.50;;;;;;5038585;28;20084;-82
2022/07/16 05:31:37;;;;;;;8.45;3.72;;;19.30;97.50;;;;;;5038680;28;20551;-84
2022/07/16 05:34:03;;;;;;;9.57;4.05;;;19.30;97.50;;;;;;5038173;28;20179;-83
2022/07/16 05:36:29;;;;;;;9.02;4.05;;;19.40;97.40;;;;;;5038268;28;20031;-83
2022/07/16 05:38:55;;;;;;;11.57;4.45;;;19.30;97.60;;;;;;5038319;28;20104;-82
2022/07/16 05:41:21;;;;;;;12.45;5.38;;;;;;;;;;5038234;28;20021;-82
2022/07/16 05:43:47;;;;;;;10.02;4.18;;;19.40;97.20;;;;;;5019764;28;20284;-83
2022/07/16 05:46:13;;;;;;;12.98;5.07;;;19.50;97.50;;;;;;5038310;28;20539;-85
2022/07/16 05:48:44;;;;;;;9.70;4.95;;;19.60;97.20;;;;;;5020181;28;20405;-82
2022/07/16 05:51:09;;;;;;;8.10;3.92;;;19.70;97.10;;;;;;5038101;28;20033;-83
2022/07/16 05:53:37;;;;;;;11.73;4.18;;;19.80;96.90;;;;;;5038101;28;20350;-83
2022/07/16 05:56:04;;;;;;;10.13;3.95;;;19.90;96.60;;;;;;5038062;28;20063;-84
2022/07/16 05:58:29;;;;;;;9.18;4.28;;;20.00;96.30;;;;;;5038174;28;20029;-83
2022/07/16 06:00:55;;;;;;;11.15;4.68;;;20.10;96.10;;;;;;5038016;28;20476;-84
2022/07/16 06:03:21;;;;;;;7.88;3.90;;;20.20;96.00;;;;;;5038191;28;20580;-82
2022/07/16 06:05:47;;;;;;;10.43;4.70;;;20.30;96.00;;;;;;5037764;28;20336;-82
2022/07/16 06:08:13;;;;;;;9.80;4.65;;;20.40;95.50;;;;;;5038045;28;20076;-82
2022/07/16 06:10:38;;;;;;;11.93;5.03;;;20.50;95.50;;;;;;5019549;28;20021;-82
2022/07/16 06:13:04;;;;;;;10.15;5.22;;;20.50;95.50;;;;;;5037525;28;20013;-83
2022/07/16 06:15:30;;;;;;;9.70;4.85;;;20.60;95.50;;;;;;5019421;28;20668;-81
2022/07/16 06:17:56;;;;;;;12.30;5.65;;;20.70;95.40;;;;;;5036298;28;20053;-83
2022/07/16 06:20:22;;;;;;;12.38;6.10;;;20.70;95.70;;;;;;5037095;28;20627;-82
2022/07/16 06:22:48;;;;;;;12.15;5.70;;;20.80;95.80;;;;;;5037383;28;20724;-82
2022/07/16 06:25:15;;;;;;;12.48;4.78;;;20.80;96.20;;;;;;5037201;28;20032;-81
2022/07/16 06:27:44;;;;;;;11.02;5.53;;;22.50;96.50;;;;;;5019281;28;20468;-83
2022/07/16 06:30:11;;;;;;;10.38;5.20;;;21.00;95.60;;;;;;5037389;28;20309;-81
2022/07/16 06:32:38;;;;;;;10.73;4.78;;;21.00;95.70;;;;;;5037170;28;20293;-83
2022/07/16 06:35:06;;;;;;;10.63;5.70;;;21.30;94.70;;;;;;5037097;28;20108;-81
2022/07/16 06:37:32;;;;;;;11.77;5.40;;;21.30;95.20;;;;;;5036903;28;20032;-83
2022/07/16 06:40:00;;;;;;;10.60;5.70;;;21.40;95.10;;;;;;5037206;28;20049;-81
2022/07/16 06:42:25;;;;;;;10.05;5.28;;;21.40;94.80;;;;;;5036891;28;20530;-81
2022/07/16 06:44:52;;;;;;;9.82;4.65;;;21.40;94.90;;;;;;5037237;28;20246;-83
2022/07/16 06:47:18;;;;;;;8.25;4.70;;;21.60;94.40;;;;;;5036853;28;20033;-82
2022/07/16 06:49:43;;;;;;;8.20;4.90;;;21.60;94.10;;;;;;5018863;28;20025;-82
2022/07/16 06:52:09;;;;;;;16.08;5.28;;;21.80;93.80;;;;;;5036994;28;20036;-83
2022/07/16 06:54:35;;;;;;;9.98;4.43;;;21.90;93.50;;;;;;5036811;28;20435;-84
2022/07/16 06:57:01;;;;;;;7.88;3.95;;;22.10;93.10;;;;;;5036723;28;20084;-83
2022/07/16 06:59:26;;;;;;;9.48;4.60;;;22.10;93.00;;;;;;5019377;28;20013;-83
2022/07/16 07:01:52;;;;;;;10.40;5.25;;;22.20;92.90;;;;;;5036817;28;20029;-81
2022/07/16 07:04:18;;;;;;;9.90;5.55;;;22.20;92.70;;;;;;5037093;28;20025;-83
2022/07/16 07:06:44;;;;;;;10.85;4.97;;;22.30;92.80;;;;;;5036843;28;20021;-83
2022/07/16 07:09:09;;;;;;;10.70;5.18;;;22.30;92.70;;;;;;5036585;28;20056;-85
2022/07/16 07:11:36;;;;;;;10.57;5.10;;;22.50;92.30;;;;;;5036752;28;20021;-82
2022/07/16 07:14:02;;;;;;;7.63;4.18;;;22.50;92.60;;;;;;5019507;28;20041;-81
2022/07/16 07:16:27;;;;;;;9.57;4.45;;;22.50;92.40;;;;;;5037164;28;20179;-82
2022/07/16 07:18:54;;;;;;;7.47;4.05;;;22.70;91.90;;;;;;5018934;28;20087;-82
2022/07/16 07:21:26;;;;;;;7.70;4.00;;;22.80;91.80;;;;;;5037194;28;20032;-82
2022/07/16 07:23:52;;;;;;;8.50;4.13;;;22.90;91.70;;;;;;5036807;28;20020;-82
2022/07/16 07:26:18;;;;;;;8.98;4.22;;;22.90;91.30;;;;;;5018215;28;20488;-83
2022/07/16 07:28:55;;;;;;;11.68;4.45;;;23.00;91.10;;;;;;5036817;28;20094;-83
2022/07/16 07:31:27;;;;;;;9.05;4.78;;;23.10;90.80;;;;;;5039668;28;20013;-84
2022/07/16 07:33:53;;;;;;;9.48;4.68;;;23.20;90.70;;;;;;5040543;28;20029;-82
2022/07/16 07:36:25;;;;;;;10.55;4.65;;;23.30;90.20;;;;;;5022371;28;20483;-83
2022/07/16 07:38:54;;;;;;;13.63;5.20;;;23.50;89.90;;;;;;5040328;28;20079;-84
2022/07/16 07:41:20;;;;;;;11.77;5.20;;;23.60;89.90;;;;;;5021319;28;20032;-82
2022/07/16 07:43:48;;;;;;;10.10;5.55;;;23.70;90.00;;;;;;5040367;28;20079;-83
2022/07/16 07:46:14;;;;;;;10.13;4.38;;;23.90;89.00;;;;;;5040648;28;20029;-83
2022/07/16 07:48:40;;;;;;;9.52;5.00;;;23.90;87.60;;;;;;5039835;28;20021;-83
2022/07/16 07:51:06;;;;;;;10.30;4.63;;;24.00;87.90;;;;;;5021995;28;20476;-82
2022/07/16 07:53:34;;;;;;;10.18;4.60;;;24.10;87.10;;;;;;5040037;28;20013;-84
2022/07/16 07:56:10;;;;;;;9.32;4.15;;;24.30;87.60;;;;;;5022003;28;20029;-82
2022/07/16 07:58:37;;;;;;;9.10;4.88;;;24.20;86.50;;;;;;5040137;28;20040;-82
2022/07/16 08:01:03;;;;;;;11.13;5.00;;;24.30;86.40;;;;;;5021705;28;20304;-82
2022/07/16 08:03:29;;;;;;;9.80;5.40;;;24.50;85.80;;;;;;5021575;28;20021;-84
2022/07/16 08:05:55;;;;;;;10.88;5.25;;;24.70;85.50;;;;;;5021543;28;20201;-82
2022/07/16 08:08:20;;;;;;;11.98;4.72;;;24.50;86.30;;;;;;5039393;28;20032;-83
2022/07/16 08:11:08;;;;;;;9.20;4.28;;;24.70;85.60;;;;;;5039915;28;20038;-84
2022/07/16 08:13:40;;;;;;;9.35;4.13;;;25.90;86.10;;;;;;5040269;28;20376;-81
2022/07/16 08:16:06;;;;;;;10.02;5.32;;;24.90;84.30;;;;;;5039520;28;20013;-83
2022/07/16 08:18:32;;;;;;;10.32;4.78;;;25.20;84.10;;;;;;5039553;28;20236;-82
2022/07/16 08:20:57;;;;;;;10.93;4.57;;;25.20;83.20;;;;;;5021648;28;20624;-82
2022/07/16 08:26:07;;;;;;;7.78;3.92;;;25.40;81.90;;;;;;5039392;28;20064;-83
2022/07/16 08:28:34;;;;;;;12.38;3.88;;;25.50;80.90;;;;;;5039706;28;20089;-82
2022/07/16 08:31:08;;;;;;;7.68;3.85;;;25.50;80.70;;;;;;5039414;28;20171;-82
2022/07/16 08:33:37;;;;;;;8.35;4.13;;;26.30;79.90;;;;;;5039266;28;20030;-82
2022/07/16 08:36:06;;;;;;;11.43;4.40;;;25.80;78.80;;;;;;5039785;28;20029;-83
2022/07/16 08:38:32;;;;;;;10.10;4.05;;;25.90;78.30;;;;;;5039596;28;20033;-81
2022/07/16 08:40:58;;;;;;;7.68;3.85;;;26.00;76.90;;;;;;5039356;28;20507;-83
2022/07/16 08:43:24;;;;;;;8.13;4.18;;;26.20;77.20;;;;;;5039139;28;20032;-83
2022/07/16 08:45:50;;;;;;;8.45;3.78;;;26.10;76.90;;;;;;5039263;28;20021;-83
2022/07/16 08:48:17;;;;;;;9.48;4.05;;;26.30;76.30;;;;;;5038863;28;20399;-83
2022/07/16 08:50:45;;;;;;;9.20;3.38;;;26.20;75.50;;;;;;5021126;28;20064;-84
2022/07/16 08:53:11;;;;;;;7.22;3.75;;;26.40;74.70;;;;;;5039348;28;20520;-84
2022/07/16 08:55:42;;;;;;;8.07;3.42;;;26.50;74.20;;;;;;5039292;28;20202;-84
2022/07/16 08:58:08;;;;;;;11.05;3.78;;;26.80;73.20;;;;;;5020846;28;20225;-85
2022/07/16 09:00:34;;;;;;;8.25;3.97;;;26.70;72.80;;;;;;5039099;28;20029;-84
2022/07/16 09:03:00;;;;;;;7.30;3.53;;;26.80;73.00;;;;;;5038712;28;20297;-84
2022/07/16 09:05:26;;;;;;;8.35;3.67;;;27.10;72.40;;;;;;5038897;28;20388;-83
2022/07/16 09:07:53;;;;;;;7.13;3.20;;;27.30;71.40;;;;;;5039837;28;20021;-83
2022/07/16 09:10:19;;;;;;;9.50;4.25;;;27.40;70.10;;;;;;5039827;28;20516;-83
2022/07/16 09:12:47;;;;;;;8.40;4.10;;;27.60;69.20;;;;;;5021553;28;20116;-82
2022/07/16 09:15:29;;;;;;;7.78;3.10;;;27.60;69.50;;;;;;5039079;28;20024;-82
2022/07/16 09:18:24;;;;;;;9.65;3.78;;;27.80;68.50;;;;;;5021132;28;20199;-82
2022/07/16 09:20:51;;;;;;;8.77;3.65;;;27.70;68.30;;;;;;4960623;28;20153;-82
2022/07/16 09:23:30;;;;;;;10.48;4.20;;;27.80;68.50;;;;;;4977416;28;20023;-84
2022/07/16 09:26:01;;;;;;;7.28;3.42;;;28.10;66.90;;;;;;4976249;28;20046;-83
2022/07/16 09:28:38;;;;;;;6.75;3.55;;;28.10;66.10;;;;;;4959996;28;20023;-84
2022/07/16 09:31:04;;;;;;;7.15;3.40;;;28.00;65.10;;;;;;4976000;28;20482;-85
2022/07/16 09:33:30;;;;;;;7.63;3.25;;;28.20;65.40;;;;;;4996357;28;20218;-83
2022/07/16 09:36:10;;;;;;;8.45;3.55;;;28.30;65.00;;;;;;4996640;28;20108;-83
2022/07/16 09:38:53;;;;;;;8.70;3.53;;;28.60;64.80;;;;;;4995893;28;20121;-83
2022/07/16 09:41:20;;;;;;;7.13;3.63;;;28.80;63.50;;;;;;4995765;28;20377;-83
2022/07/16 09:43:47;;;;;;;7.53;3.67;;;28.90;62.10;;;;;;4995854;28;20064;-83
2022/07/16 09:46:23;;;;;;;9.35;3.65;;;28.90;62.00;;;;;;4995345;28;20152;-84
2022/07/16 09:48:50;;;;;;;7.28;3.42;;;29.00;61.80;;;;;;4995145;28;20509;-82
2022/07/16 09:51:27;;;;;;;5.80;3.22;;;29.20;61.60;;;;;;4978840;28;20067;-83
2022/07/16 09:53:54;;;;;;;6.70;2.80;;;29.40;61.30;;;;;;4977895;28;20627;-83
2022/07/16 09:56:27;;;;;;;9.13;3.65;;;29.50;61.20;;;;;;4999607;28;20048;-82
2022/07/16 09:58:54;;;;;;;;;;;29.70;60.40;;;;;;5038399;28;20056;-83
2022/07/16 10:01:21;;;;;;;8.40;3.83;;;29.70;60.00;;;;;;5037724;28;19992;-84
2022/07/16 10:03:49;;;;;;;8.50;3.70;;;29.90;60.10;;;;;;5037397;28;20190;-84
2022/07/16 10:06:15;;;;;;;9.73;3.83;;;30.20;59.60;;;;;;5037789;28;20021;-84
2022/07/16 10:08:43;;;;;;;6.55;3.28;;;30.30;58.10;;;;;;5037485;28;20028;-84
2022/07/16 10:11:10;;;;;;;7.57;3.22;;;30.30;57.90;;;;;;5037325;28;20017;-83
2022/07/16 10:13:37;;;;;;;11.85;3.80;;;30.10;58.40;;;;;;5019632;28;20301;-81
2022/07/16 10:16:03;;;;;;;7.82;3.70;;;30.20;58.10;;;;;;5019332;28;20236;-84
2022/07/16 10:18:37;;;;;;;7.35;3.60;;;30.40;58.20;;;;;;5018295;28;20453;-82
2022/07/16 10:21:13;;;;;;;6.15;3.40;;;30.70;57.20;;;;;;5037235;28;20040;-83
2022/07/16 10:23:42;;;;;;;6.80;3.05;;;30.70;57.50;;;;;;5037450;28;20028;-84
2022/07/16 10:26:20;;;;;;;12.90;3.95;;;30.70;56.50;;;;;;5037430;28;20017;-83
2022/07/16 10:28:56;;;;;;;8.82;3.28;;;30.80;57.40;;;;;;5037478;28;20024;-83
2022/07/16 10:31:37;;;;;;;6.13;3.17;;;30.90;57.30;;;;;;5019362;28;20613;-83
2022/07/16 10:34:15;;;;;;;6.78;3.47;;;30.70;56.50;;;;;;5037540;28;20459;-82
2022/07/16 10:36:55;;;;;;;6.55;3.35;;;30.80;57.20;;;;;;5036932;28;20479;-81
2022/07/16 10:39:23;;;;;;;8.38;3.25;;;30.90;56.40;;;;;;5036907;28;20029;-81
2022/07/16 10:42:03;;;;;;;8.57;3.30;;;31.00;56.60;;;;;;5019213;28;20483;-82
2022/07/16 10:44:48;;;;;;;6.70;3.55;;;31.20;57.00;;;;;;5037242;28;20313;-81
2022/07/16 10:47:15;;;;;;;8.68;3.85;;;31.20;57.30;;;;;;5036894;28;20066;-83
2022/07/16 10:49:45;;;;;;;6.97;3.15;;;31.00;57.20;;;;;;5019171;28;20025;-82
2022/07/16 10:52:18;;;;;;;7.05;3.42;;;31.20;56.60;;;;;;5036968;28;20036;-82
2022/07/16 10:54:50;;;;;;;7.22;2.97;;;31.30;56.50;;;;;;5019001;28;20718;-83
2022/07/16 10:57:17;;;;;;;7.00;3.20;;;31.40;56.50;;;;;;5019000;28;20036;-82
2022/07/16 10:59:46;;;;;;;8.52;2.92;;;31.50;55.70;;;;;;5037000;28;20352;-82
2022/07/16 11:02:14;;;;;;;9.55;3.47;;;31.50;55.30;;;;;;5036810;28;20417;-83
2022/07/16 11:04:49;;;;;;;7.55;3.20;;;31.70;55.40;;;;;;5037535;28;20104;-83
2022/07/16 11:07:21;;;;;;;8.38;3.75;;;31.80;54.90;;;;;;5041098;28;20025;-83
2022/07/16 11:09:53;;;;;;;5.55;3.03;;;32.10;55.50;;;;;;5041089;28;20447;-83
2022/07/16 11:12:25;;;;;;;7.25;3.15;;;32.30;54.60;;;;;;5040860;28;20258;-82
2022/07/16 11:14:53;;;;;;;7.82;3.05;;;32.20;53.70;;;;;;5041045;28;20009;-82
2022/07/16 11:17:23;;;;;;;9.38;3.50;;;32.00;53.50;;;;;;5040224;28;20355;-84
2022/07/16 11:19:55;;;;;;;7.45;3.35;;;32.30;54.70;;;;;;5022402;28;20052;-83
2022/07/16 11:22:23;;;;;;;8.52;3.85;;;32.70;53.80;;;;;;5041007;28;20218;-83
2022/07/16 11:24:54;;;;;;;4.93;2.55;;;32.80;53.20;;;;;;5041021;28;20476;-82
2022/07/16 11:27:31;;;;;;;6.57;3.17;;;33.80;53.90;;;;;;5040759;28;20025;-82
2022/07/16 11:29:59;;;;;;;6.95;3.25;;;33.40;52.50;;;;;;5022551;28;20259;-83
2022/07/16 11:32:25;;;;;;;8.07;2.95;;;33.70;50.80;;;;;;5040671;28;20108;-82
2022/07/16 11:34:52;;;;;;;7.20;3.03;;;33.90;51.00;;;;;;5040583;28;20025;-80
2022/07/16 11:37:17;;;;;;;6.63;3.30;;;34.20;50.10;;;;;;5022488;28;20231;-84
2022/07/16 11:39:43;;;;;;;6.22;2.53;;;34.70;49.40;;;;;;5040650;28;20116;-84
2022/07/16 11:42:09;;;;;;;4.85;2.75;;;34.80;48.40;;;;;;5040722;28;20102;-83
2022/07/16 11:44:39;;;;;;;6.78;2.83;;;34.60;48.70;;;;;;5040552;28;20104;-83
2022/07/16 11:47:09;;;;;;;6.80;2.58;;;35.10;48.10;;;;;;5040228;28;20256;-81
2022/07/16 11:49:40;;;;;;;6.88;2.67;;;35.20;48.00;;;;;;5022106;28;20471;-83
2022/07/16 11:52:08;;;;;;;6.68;3.35;;;35.30;47.70;;;;;;5040359;28;20053;-86
2022/07/16 11:54:41;;;;;;;5.82;3.30;;;35.40;47.20;;;;;;5040445;28;20021;-82
2022/07/16 11:57:11;;;;;;;7.07;2.97;;;35.60;47.50;;;;;;5041129;28;20069;-83
2022/07/16 11:59:52;;;;;;;5.22;2.33;;;36.30;47.50;;;;;;5040702;28;20017;-82
2022/07/16 12:02:21;;;;;;;5.72;2.38;;;36.70;44.50;;;;;;5040416;28;20029;-83
2022/07/16 12:04:54;;;;;;;5.88;2.67;;;37.00;43.90;;;;;;5039919;28;20060;-84
2022/07/16 12:07:26;;;;;;;4.80;2.17;;;37.50;44.10;;;;;;5040039;28;20017;-83
2022/07/16 12:09:54;;;;;;;4.97;2.40;;;38.10;43.10;;;;;;5022308;28;20083;-81
2022/07/16 12:12:23;;;;;;;4.95;2.05;;;38.40;42.90;;;;;;5039950;28;20028;-83
2022/07/16 12:14:54;;;;;;;4.65;2.38;;;38.40;42.20;;;;;;5040074;28;20102;-81
2022/07/16 12:17:25;;;;;;;5.05;2.40;;;38.30;42.00;;;;;;5038786;28;20041;-81
2022/07/16 12:20:28;;;;;;;5.85;2.30;;;38.60;42.10;;;;;;5039862;28;20064;-82
2022/07/16 12:23:01;;;;;;;6.45;2.85;;;38.80;41.90;;;;;;4976578;28;20042;-84
2022/07/16 12:25:36;;;;;;;4.45;2.40;;;39.00;42.00;;;;;;4977539;28;20117;-84
2022/07/16 12:28:10;;;;;;;5.28;2.00;;;39.20;41.50;;;;;;4978260;28;20276;-82
2022/07/16 12:31:00;;;;;;;6.70;2.22;;;39.20;41.30;;;;;;4978540;28;20027;-83
2022/07/16 12:33:28;;;;;;;7.57;2.90;;;38.70;41.40;;;;;;4978506;28;20073;-82
2022/07/16 12:36:07;;;;;;;5.07;2.22;;;39.10;41.70;;;;;;4978229;28;20023;-81
2022/07/16 12:39:09;;;;;;;5.03;2.40;;;39.30;40.30;;;;;;4977710;28;20510;-82
2022/07/16 12:41:40;;;;;;;4.57;2.20;;;39.50;40.30;;;;;;4958851;28;20793;-83
2022/07/16 12:44:12;;;;;;;;;;;39.40;40.20;;;;;;4963434;28;20035;-81
2022/07/16 12:46:48;;;;;;;4.30;2.05;;;40.70;41.60;;;;;;4967659;28;19960;-82
2022/07/16 12:49:22;;;;;;;6.85;2.47;;;40.00;39.30;;;;;;4952860;28;20039;-81
2022/07/16 12:51:51;;;;;;;5.28;2.08;;;40.40;39.50;;;;;;4966949;28;20410;-81
2022/07/16 12:54:19;;;;;;;4.88;1.88;;;40.40;38.70;;;;;;4969627;28;20023;-81
2022/07/16 12:59:32;;;;;;;3.70;2.05;;;40.20;39.70;;;;;;4993364;28;20044;-82
2022/07/16 13:01:58;;;;;;;4.78;2.17;;;40.50;39.10;;;;;;4980586;28;20150;-85